Tiempo atmosférico en la estación meteorológica de Robledo De Chavela, Madrid (790 m.)



Fecha
DESCASC
Temp. máxima en grados centígrados (hora)
DESCASC
Temp. mínima en grados centígrados (hora)
DESCASC
Temp. media en grados centígrados
DESCASC
Racha de viento máxima en m/sg (hora)
DESCASC
Velocidad máxima media en intervalos de 10 minutos(hora)
DESCASC
Precipitaciones diarias en mm
DESCASC
Precipitaciones de 00:00 a 06:00 en mm
DESCASC
Precipitaciones de 06:00 a 12:00 en mm
DESCASC
Precipitaciones de 12:00 a 18:00 en mm
DESCASC
Precipitaciones de 18:00 a 24:00 en mm
DESCASC
23-12-2020 7.7 (22:40) 2.9 (00:00) 5.3 3.06 (08:00) 1.94 (01:20) 0.1 0 0 0 0.1
24-12-2020 9.9 (15:50) 0.4 (00:00) 5.1 11.11 (19:30) 5.83 (19:10) 0.3 0 0.3 0 0
25-12-2020 8.6 (12:50) -3.1 (-00:0) 2.8 9.17 (15:20) 4.17 (05:10) 0 0 0 0 0
26-12-2020 7.7 (15:20) -4.1 (-00:0) 1.8 8.06 (21:10) 4.72 (20:20) 0 0 0 0 0
27-12-2020 7.2 (13:40) -3.8 (-00:0) 1.7 15 (23:10) 7.78 (23:30) 0 0 0 0 0
28-12-2020 8.6 (04:30) 3.5 (00:00) 6.1 16.67 (01:10) 9.72 (01:20) 0.3 0.1 0.2 0 0
29-12-2020 7.1 (14:50) 0.4 (00:00) 3.7 11.94 (05:10) 5 (16:20) 0 0 0 0 0
30-12-2020 8 (14:50) -0.7 (-00:0) 3.7 11.94 (22:00) 5.28 (22:10) 0 0 0 0 0
31-12-2020 7.6 (14:30) -2.3 (-00:0) 2.6 13.06 (22:50) 3.89 (23:10) 0.2 0 0 0 0.2
01-01-2021 5.1 (13:10) 0.7 (00:00) 2.9 12.5 (21:50) 5.83 (02:50) 1 0 0 0 1
02-01-2021 3.8 (14:40) -0.9 (-00:0) 1.4 15.28 (13:00) 6.94 (13:00) 0 0 0 0 0
03-01-2021 7.2 (14:30) -1.2 (-00:0) 3 10 (17:30) 5.28 (20:20) 0 0 0 0 0
04-01-2021 5.6 (13:50) -2.1 (-00:0) 1.8 9.72 (12:10) 4.72 (12:30) 0 0 0 0 0
05-01-2021 6 (15:20) -4.1 (-00:0) 1 9.72 (05:00) 4.72 (05:00) 0 0 0 0 0
06-01-2021 5.8 (15:30) -5.9 (-00:0) 0 5 (22:30) 2.5 (16:30) 0 0 0 0 0
07-01-2021 1.3 (11:40) -2.7 (-00:0) -0.7 6.11 (10:00) 3.61 (13:40) 1 0 0 1 0
08-01-2021 1.2 (11:40) -5.2 (-00:0) -2 7.22 (17:40) 3.33 (21:40) 5.5 0 0 3.7 1.8
09-01-2021 -0.1 (00:00) -1.8 (-00:0) -0.9 6.94 (00:20) 3.33 (00:20) 3 0.3 0 2.6 0.1
10-01-2021 4.1 (16:10) -5.1 (06:00) -0.5 7.5 (22:00) 3.61 (22:00) -- -- -- -- --
11-01-2021 4.3 (14:00) -7.7 (-00:0) -1.7 10.28 (21:30) 6.39 (21:40) -- -- -- -- --
12-01-2021 3.7 (13:40) -8.7 (-00:0) -2.5 4.17 (20:30) 2.5 (20:40) -- -- -- -- 0
13-01-2021 7.9 (15:50) -7.4 (-00:0) 0.3 4.72 (01:40) 2.5 (01:40) 0 0 0 0 0
14-01-2021 9 (14:30) -5.2 (08:40) 1.9 6.67 (18:40) 2.5 (20:20) 0 0 0 0 0
15-01-2021 8.9 (16:00) -1 (-00:0) 3.9 9.44 (08:00) 5.56 (06:40) 0 0 0 0 0
16-01-2021 12.9 (13:10) -0.7 (-00:0) 6.1 8.89 (05:50) 4.44 (05:40) 0 0 0 0 0
17-01-2021 11.8 (12:50) -0.9 (-00:0) 5.5 7.5 (17:40) 3.89 (17:50) 0 0 0 0 0
18-01-2021 10.1 (15:20) -0.7 (-00:0) 4.7 3.61 (15:10) 2.5 (08:50) 0 0 0 0 0
19-01-2021 9.4 (14:30) -2.1 (-00:0) 3.6 4.17 (12:20) 2.78 (12:20) 0 0 0 0 0
20-01-2021 6 (23:59) 1.9 (00:00) 3.9 4.72 (04:10) 3.33 (04:00) 13.4 0 4.8 3.4 5.2
21-01-2021 9.6 (18:40) 6 (00:00) 7.8 18.61 (19:10) 8.89 (19:10) 0 0 0 0 0

Gráficas

Temp. máximas Temp. mínimas Temp. medias Precipitaciones Rachas de viento máximas Velocidades máximas media en intervalos de 10 minutos

Datos horarios

Fecha y hora oficial Temperatura (ºC) Velocidad del viento (km/h) Dirección del viento Racha (km/h) Dirección de racha Precipitación (mm) Presión (hPa) Tendencia (hPa) Humedad (%)
2021-01-21 23:00:00 9.2 19 Sudoeste 46 Sudoeste 0 922.7 -- 81
2021-01-21 22:00:00 9.2 26 Sudoeste 44 Sudoeste 0 923.5 -- 81
2021-01-21 21:00:00 9.1 21 Sudoeste 53 Oeste 0 923.9 -- 81
2021-01-21 20:00:00 9.2 24 Sudoeste 67 Sudoeste 0 924.3 -- 78
2021-01-21 19:00:00 9.3 26 Sudoeste 61 Sudoeste 0 924.6 -- 78
2021-01-21 18:00:00 9.4 30 Sudoeste 57 Sudoeste 0 924.5 -- 76
2021-01-21 17:00:00 9.3 22 Sudoeste 66 Oeste 0 924.4 -- 76
2021-01-21 16:00:00 9.1 24 Sudoeste 55 Sudoeste 0 924.3 -- 78
2021-01-21 15:00:00 8.5 14 Sudoeste 43 Oeste 0 924.7 -- 79
2021-01-21 14:00:00 8.4 22 Sudoeste 59 Sur 0 925.2 -- 74
2021-01-21 13:00:00 8.6 16 Sudoeste 51 Oeste 0 925.8 -- 71
2021-01-21 12:00:00 8.6 20 Sudoeste 53 Sudoeste 0 926.3 -- 73
2021-01-21 11:00:00 7.9 20 Oeste 51 Sudoeste 0 926 -- 81
2021-01-21 10:00:00 7.5 20 Sudoeste 38 Sudoeste 0 925.6 -- 78
2021-01-21 09:00:00 7 13 Oeste 38 Sudoeste 0 925.3 -- 83
2021-01-21 08:00:00 7.1 9 Oeste 24 Sudoeste 0 925.4 -- 83
2021-01-21 07:00:00 7.4 14 Sudoeste 28 Sudoeste 0 925.1 -- 84
2021-01-21 06:00:00 7 9 Oeste 34 Oeste 0 925 -- 85
2021-01-21 05:00:00 7 9 Sudoeste 22 Sudoeste 0 924.5 -- 85
2021-01-21 04:00:00 7.1 9 Oeste 21 Oeste 0 924.4 -- 84
2021-01-21 03:00:00 6.9 8 Oeste 18 Sudoeste 0 923.7 -- 84
2021-01-21 02:00:00 7.1 10 Oeste 22 Oeste 0 923.4 -- 85
2021-01-21 01:00:00 7.1 6 Oeste 26 Oeste 0 923 -- 86
2021-01-21 00:00:00 6 0 Calma 13 Sur 0.1 922.5 -- 87
2021-01-20 23:00:00 4.8 0 Calma 10 Nordeste 0 922.2 -- 87
2021-01-20 22:00:00 4.8 2 Nordeste 8 Nordeste 0.6 921.8 -- 87
2021-01-20 21:00:00 5 2 Noroeste 11 Este 0.1 921.3 -- 87
2021-01-20 20:00:00 5.1 4 Nordeste 8 Nordeste 1.8 921.1 -- 87
2021-01-20 19:00:00 4.7 4 Nordeste 9 Nordeste 2.6 920.4 -- 87
2021-01-20 18:00:00 4.6 6 Nordeste 14 Norte 3 920.2 -- 87
2021-01-20 17:00:00 5.3 0 Calma 9 Nordeste 0.3 920.1 -- 87
2021-01-20 16:00:00 4.9 6 Nordeste 10 Nordeste 0 920.2 -- 87
2021-01-20 15:00:00 4.4 5 Este 9 Nordeste 0.1 920.7 -- 87
2021-01-20 14:00:00 3.6 6 Nordeste 17 Nordeste 0 921.4 -- 87
2021-01-20 13:00:00 3.4 3 Sur 17 Nordeste 0 922.1 -- 87
2021-01-20 12:00:00 3 6 Nordeste 16 Nordeste 0.9 922.8 -- 87
2021-01-20 11:00:00 2.9 7 Este 15 Nordeste 0.5 923.3 -- 87
2021-01-20 10:00:00 2.2 4 Este 15 Nordeste 1.1 923.7 -- 87
2021-01-20 09:00:00 2.2 3 Este 11 Nordeste 2 924.7 -- 86
2021-01-20 08:00:00 2 8 Nordeste 12 Nordeste 0.3 924.5 -- 83
2021-01-20 07:00:00 1.9 0 Calma 14 Este 0 924.9 -- 80
2021-01-20 06:00:00 2.6 2 Nordeste 10 Norte 0 925.4 -- 75
2021-01-20 05:00:00 2.3 5 Nordeste 17 Nordeste 0 926.2 -- 75
2021-01-20 04:00:00 2.2 12 Nordeste 17 Nordeste 0 927.3 -- 75
2021-01-20 03:00:00 2.6 0 Calma 7 Este 0 928.1 -- 75
2021-01-20 02:00:00 2.8 0 Calma 5 Sudeste 0 928.5 -- 78
2021-01-20 01:00:00 3 3 Nordeste 9 Nordeste 0 929.6 -- 78
2021-01-20 00:00:00 2.1 4 Nordeste 10 Nordeste 0 930.5 -- 82
2021-01-19 23:00:00 0.4 5 Nordeste 8 Nordeste 0 930.8 -- 84
2021-01-19 22:00:00 0.5 0 Calma 8 Nordeste 0 931.1 -- 81
2021-01-19 21:00:00 1.3 3 Nordeste 6 Oeste 0 931.7 -- 81
2021-01-19 20:00:00 2.4 4 Nordeste 8 Nordeste 0 932.2 -- 75
2021-01-19 19:00:00 2.9 2 Nordeste 8 Nordeste 0 932.2 -- 68
2021-01-19 18:00:00 5.1 0 Calma 8 Sudeste 0 932.3 -- 59
2021-01-19 17:00:00 6.5 4 Sudeste 10 Sur 0 932.4 -- 54
2021-01-19 16:00:00 7.4 6 Sur 11 Sudeste 0 932.8 -- 50
2021-01-19 15:00:00 8.6 6 Sur 12 Sur 0 933.3 -- 47
2021-01-19 14:00:00 8.2 5 Sur 14 Sudeste 0 933.9 -- 49
2021-01-19 13:00:00 7.2 7 Sudeste 15 Sudeste 0 934.9 -- 54
2021-01-19 12:00:00 6.7 7 Este 12 Sudeste 0 935.8 -- 57
2021-01-19 11:00:00 5.8 3 Sudeste 8 Sudeste 0 936.1 -- 66
2021-01-19 10:00:00 1.3 0 Calma 5 Norte 0 936.1 -- 86
2021-01-19 09:00:00 -1.7 3 Nordeste 6 Nordeste 0 936 -- 87
2021-01-19 08:00:00 -1.6 0 Calma 5 Nordeste 0 936.2 -- 87
2021-01-19 07:00:00 -1.7 0 Calma 4 Nordeste 0 936.2 -- 87
2021-01-19 06:00:00 -1.2 2 Nordeste 6 Nordeste 0 936.2 -- 87
2021-01-19 05:00:00 -1.2 4 Nordeste 6 Nordeste 0 936.4 -- 87
2021-01-19 04:00:00 -1 2 Nordeste 6 Nordeste 0 936.9 -- 87
2021-01-19 03:00:00 -0.7 0 Calma 6 Nordeste 0 937 -- 87
2021-01-19 02:00:00 -0.3 2 Nordeste 7 Nordeste 0 937.4 -- 87
2021-01-19 01:00:00 -0.1 3 Nordeste 5 Nordeste 0 937.7 -- 86
2021-01-19 00:00:00 0 3 Nordeste 5 Nordeste 0 937.9 -- 85
2021-01-18 23:00:00 0.6 2 Nordeste 8 Nordeste 0 937.7 -- 84
2021-01-18 22:00:00 1.2 0 Calma 4 Norte 0 937.8 -- 84
2021-01-18 21:00:00 1.3 0 Calma 5 Nordeste 0 937.8 -- 80
2021-01-18 20:00:00 1.9 0 Calma 6 Nordeste 0 937.6 -- 77
2021-01-18 19:00:00 3.3 3 Nordeste 5 Nordeste 0 937.6 -- 69
2021-01-18 18:00:00 6.5 3 Este 9 Sudeste 0 937 -- 53
2021-01-18 17:00:00 8.6 5 Sudeste 13 Sudeste 0 937 -- 48
2021-01-18 16:00:00 9.6 6 Sur 13 Sur 0 936.7 -- 45
2021-01-18 15:00:00 9.5 4 Sur 11 Sudoeste 0 937.1 -- 44
2021-01-18 14:00:00 9.1 3 Sudeste 12 Sudeste 0 937.8 -- 42
2021-01-18 13:00:00 7.9 6 Sudeste 12 Sudeste 0 938.5 -- 43
2021-01-18 12:00:00 8.1 3 Sudeste 7 Sur 0 939.1 -- 41
2021-01-18 11:00:00 6.9 4 Sudoeste 6 Nordeste 0 938.9 -- 48
2021-01-18 10:00:00 3.5 2 Este 5 Nordeste 0 938.4 -- 63
2021-01-18 09:00:00 0.9 5 Nordeste 11 Nordeste 0 938.3 -- 69
2021-01-18 08:00:00 -0.5 3 Nordeste 9 Nordeste 0 938.1 -- 78
2021-01-18 07:00:00 0.1 4 Nordeste 6 Nordeste 0 937.9 -- 77
2021-01-18 06:00:00 -0.2 4 Nordeste 9 Norte 0 937.7 -- 74
2021-01-18 05:00:00 0 0 Calma 10 Nordeste 0 937.9 -- 70
2021-01-18 04:00:00 0.8 5 Nordeste 10 Nordeste 0 938 -- 68
2021-01-18 03:00:00 0.8 3 Norte 6 Nordeste 0 938.1 -- 70
2021-01-18 02:00:00 0.7 2 Nordeste 7 Nordeste 0 938.1 -- 66
2021-01-18 01:00:00 3.9 8 Nordeste 12 Nordeste 0 938.6 -- 58
2021-01-18 00:00:00 1.4 5 Nordeste 10 Nordeste 0 938.9 -- 65
2021-01-17 23:00:00 1.8 3 Norte 8 Noroeste 0 938.6 -- 63
2021-01-17 22:00:00 2 0 Calma 9 Nordeste 0 938.6 -- 61
2021-01-17 21:00:00 2.6 0 Calma 10 Nordeste 0 938.7 -- 55
2021-01-17 20:00:00 3.1 0 Calma 9 Nordeste 0 938.6 -- 54
2021-01-17 19:00:00 3.4 4 Nordeste 13 Sudoeste 0 938.5 -- 54
2021-01-17 18:00:00 6.4 4 Oeste 27 Noroeste 0 938.1 -- 37
2021-01-17 17:00:00 8.4 0 Calma 8 Sudoeste 0 938 -- 38
2021-01-17 16:00:00 9.8 4 Sudoeste 8 Sudoeste 0 937.9 -- 35
2021-01-17 15:00:00 9.4 4 Sudoeste 12 Sudoeste 0 938.3 -- 36
2021-01-17 14:00:00 9.1 4 Oeste 13 Sudoeste 0 938.8 -- 35
2021-01-17 13:00:00 9.5 8 Sudoeste 20 Oeste 0 939.4 -- 32
2021-01-17 12:00:00 11 9 Oeste 19 Noroeste 0 940.1 -- 23
2021-01-17 11:00:00 7.6 0 Calma 6 Nordeste 0 940.2 -- 33
2021-01-17 10:00:00 2.7 0 Calma 8 Nordeste 0 940 -- 43
2021-01-17 09:00:00 -0.4 0 Calma 8 Nordeste 0 939.6 -- 48
2021-01-17 08:00:00 0 3 Nordeste 10 Nordeste 0 939.3 -- 45
2021-01-17 07:00:00 -0.2 3 Nordeste 9 Nordeste 0 938.9 -- 47
2021-01-17 06:00:00 -0.5 0 Calma 8 Nordeste 0 938.8 -- 48
2021-01-17 05:00:00 0.4 0 Calma 10 Norte 0 938.9 -- 44
2021-01-17 04:00:00 1.8 3 Nordeste 7 Nordeste 0 939.3 -- 42
2021-01-17 03:00:00 0.7 2 Nordeste 11 Noroeste 0 939.2 -- 45
2021-01-17 02:00:00 0.2 2 Nordeste 7 Sudoeste 0 939.5 -- 49
2021-01-17 01:00:00 1 0 Calma 10 Nordeste 0 939.9 -- 45
2021-01-17 00:00:00 1.3 0 Calma 8 Nordeste 0 940.1 -- 45
2021-01-16 23:00:00 1.5 0 Calma 10 Nordeste 0 940.1 -- 46
2021-01-16 22:00:00 1.8 2 Nordeste 14 Nordeste 0 939.9 -- 51
2021-01-16 21:00:00 1.6 3 Nordeste 9 Nordeste 0 939.6 -- 60
2021-01-16 20:00:00 1.7 2 Nordeste 9 Nordeste 0 939.2 -- 63
2021-01-16 19:00:00 3.1 4 Nordeste 10 Nordeste 0 939 -- 59
2021-01-16 18:00:00 5.9 0 Calma 9 Nordeste 0 938.6 -- 46
2021-01-16 17:00:00 9.1 0 Calma 9 Oeste 0 938.2 -- 38
2021-01-16 16:00:00 9.6 4 Sudoeste 8 Oeste 0 937.8 -- 37
2021-01-16 15:00:00 10 5 Sudoeste 12 Oeste 0 937.8 -- 35
2021-01-16 14:00:00 10 6 Oeste 12 Oeste 0 938.1 -- 34
2021-01-16 13:00:00 12.6 3 Sur 9 Sur 0 938.5 -- 25
2021-01-16 12:00:00 10 4 Sudoeste 9 Oeste 0 939.2 -- 29
2021-01-16 11:00:00 7.4 3 Este 8 Este 0 938.8 -- 32
2021-01-16 10:00:00 5.3 5 Este 12 Este 0 938.1 -- 34
2021-01-16 09:00:00 1.4 5 Nordeste 12 Nordeste 0 937.5 -- 38
2021-01-16 08:00:00 3.4 3 Este 12 Norte 0 937.2 -- 33
2021-01-16 07:00:00 5 2 Sur 23 Norte 0 937.2 -- 30
2021-01-16 06:00:00 4 0 Calma 32 Noroeste 0 937.1 -- 30
2021-01-16 05:00:00 1.2 3 Este 18 Norte 0 937 -- 42
2021-01-16 04:00:00 1 3 Este 26 Noroeste 0 936.8 -- 44
2021-01-16 03:00:00 0.4 4 Nordeste 28 Noroeste 0 937 -- 50
2021-01-16 02:00:00 0.9 3 Norte 22 Noroeste 0 937.1 -- 51
2021-01-16 01:00:00 -0.4 5 Nordeste 8 Nordeste 0 937.7 -- 62
2021-01-16 00:00:00 0 4 Nordeste 8 Nordeste 0 937.8 -- 61
2021-01-15 23:00:00 -0.5 3 Nordeste 8 Nordeste 0 937.7 -- 66
2021-01-15 22:00:00 0.2 4 Nordeste 8 Nordeste 0 937.6 -- 72
2021-01-15 21:00:00 0 5 Nordeste 9 Nordeste 0 937.6 -- 79
2021-01-15 20:00:00 -0.4 3 Nordeste 7 Nordeste 0 937.7 -- 79
2021-01-15 19:00:00 0.7 2 Nordeste 8 Nordeste 0 937.5 -- 72
2021-01-15 18:00:00 3.9 5 Noroeste 7 Oeste 0 937.3 -- 56
2021-01-15 17:00:00 5.7 4 Oeste 10 Sudeste 0 937.2 -- 51
2021-01-15 16:00:00 7.9 3 Sudeste 11 Este 0 937.2 -- 44
2021-01-15 15:00:00 7.6 6 Este 13 Este 0 937.1 -- 46
2021-01-15 14:00:00 8.3 2 Sudeste 9 Sudeste 0 937.3 -- 45
2021-01-15 13:00:00 8.2 4 Sur 10 Nordeste 0 938.4 -- 46
2021-01-15 12:00:00 6.3 5 Este 12 Este 0 939.2 -- 53
2021-01-15 11:00:00 4.9 6 Este 11 Este 0 938.8 -- 57
2021-01-15 10:00:00 3.8 6 Este 27 Norte 0 938.5 -- 59
2021-01-15 09:00:00 3.2 13 Noroeste 31 Noroeste 0 937.6 -- 62
2021-01-15 08:00:00 3.5 18 Noroeste 34 Noroeste 0 937.3 -- 63
2021-01-15 07:00:00 3.4 19 Noroeste 33 Noroeste 0 936.9 -- 63
2021-01-15 06:00:00 3.7 17 Noroeste 32 Norte 0 936.9 -- 63
2021-01-15 05:00:00 4.2 18 Noroeste 31 Noroeste 0 937 -- 61
2021-01-15 04:00:00 4.5 10 Noroeste 28 Norte 0 937.1 -- 60
2021-01-15 03:00:00 0.6 3 Nordeste 18 Nordeste 0 937.2 -- 67
2021-01-15 02:00:00 3.7 4 Nordeste 23 Norte 0 937.3 -- 59
2021-01-15 01:00:00 -0.7 2 Nordeste 8 Nordeste 0 937.8 -- 77
2021-01-15 00:00:00 -0.8 3 Nordeste 8 Nordeste 0 938 -- 69
2021-01-14 23:00:00 -0.4 0 Calma 8 Nordeste 0 937.7 -- 63
2021-01-14 22:00:00 0.5 4 Nordeste 14 Noroeste 0 937.6 -- 51
2021-01-14 21:00:00 5.4 9 Noroeste 23 Noroeste 0 937.1 -- 36
2021-01-14 20:00:00 4.1 5 Nordeste 13 Norte 0 937 -- 42
2021-01-14 19:00:00 4.4 5 Norte 24 Noroeste 0 936.7 -- 33
2021-01-14 18:00:00 3.2 5 Nordeste 14 Nordeste 0 936.2 -- 48
2021-01-14 17:00:00 5.1 7 Nordeste 13 Nordeste 0 936 -- 42
2021-01-14 16:00:00 6.8 7 Nordeste 12 Nordeste 0 935.8 -- 38
2021-01-14 15:00:00 7.1 6 Este 12 Este 0 935.8 -- 38
2021-01-14 14:00:00 7.2 4 Sudoeste 8 Sudoeste 0 936.3 -- 39
2021-01-14 13:00:00 6.9 4 Sudoeste 5 Sudoeste 0 937 -- 39
2021-01-14 12:00:00 5 3 Sudoeste 5 Sudoeste 0 937.6 -- 42
2021-01-14 11:00:00 2.7 2 Sur 4 Sur 0 937.8 -- 51
2021-01-14 10:00:00 -0.3 3 Nordeste 8 Nordeste 0 937.7 -- 65
2021-01-14 09:00:00 -4.7 5 Nordeste 9 Nordeste 0 937.3 -- 74
2021-01-14 08:00:00 -3.8 6 Nordeste 10 Nordeste 0 937.3 -- 71
2021-01-14 07:00:00 -4.1 2 Norte 9 Nordeste 0 937.3 -- 71
2021-01-14 06:00:00 -3.2 4 Nordeste 8 Nordeste 0 937.2 -- 70
2021-01-14 05:00:00 -3.3 5 Nordeste 12 Nordeste 0 937.5 -- 73
2021-01-14 04:00:00 -3.2 6 Nordeste 9 Nordeste 0 937.9 -- 79
2021-01-14 03:00:00 -3.9 3 Nordeste 8 Nordeste 0 938.1 -- 78
2021-01-14 02:00:00 -3.4 0 Calma 6 Norte 0 938.4 -- 76
2021-01-14 01:00:00 -2.9 5 Nordeste 10 Nordeste 0 938.6 -- 74
2021-01-14 00:00:00 -2.7 0 Calma 11 Nordeste 0 939.1 -- 74
2021-01-13 23:00:00 -2.9 0 Calma 8 Nordeste 0 938.9 -- 81
2021-01-13 22:00:00 -2.3 3 Nordeste 10 Nordeste 0 939.1 -- 79
2021-01-13 21:00:00 -2.5 3 Nordeste 8 Nordeste 0 938.8 -- 78
2021-01-13 20:00:00 -1.9 0 Calma 7 Nordeste 0 938.6 -- 75
2021-01-13 19:00:00 -0.8 2 Nordeste 6 Nordeste 0 938.4 -- 72
2021-01-13 18:00:00 1.5 0 Calma 7 Sudoeste 0 938.2 -- 51
2021-01-13 17:00:00 5 2 Este 5 Sudoeste 0 937.9 -- 42
2021-01-13 16:00:00 5.4 4 Sur 8 Sudeste 0 938.3 -- 38
2021-01-13 15:00:00 6 3 Sudoeste 6 Oeste 0 938.4 -- 39
2021-01-13 14:00:00 3.8 5 Sudoeste 10 Sudoeste 0 938.8 -- 44
2021-01-13 13:00:00 5.4 4 Este 11 Nordeste 0 939.3 -- 42
2021-01-13 12:00:00 2.7 5 Nordeste 12 Este 0 940.2 -- 50
2021-01-13 11:00:00 1.3 5 Nordeste 11 Nordeste 0 939.9 -- 54
2021-01-13 10:00:00 -1.8 0 Calma 8 Nordeste 0 939.8 -- 70
2021-01-13 09:00:00 -6.2 4 Nordeste 9 Nordeste 0 939.6 -- 81
2021-01-13 08:00:00 -6.7 0 Calma 5 Sur 0 939.2 -- 82
2021-01-13 07:00:00 -6.7 4 Noroeste 10 Nordeste 0 939 -- 81
2021-01-13 06:00:00 -5.9 5 Nordeste 8 Nordeste 0 938.9 -- 80
2021-01-13 05:00:00 -6.7 3 Nordeste 12 Nordeste 0 939 -- 79
2021-01-13 04:00:00 -5.8 0 Calma 9 Nordeste 0 939.4 -- 78
2021-01-13 03:00:00 -5.2 0 Calma 11 Este 0 939.3 -- 75
2021-01-13 02:00:00 -5 2 Nordeste 17 Nordeste 0 939.1 -- 77
2021-01-13 01:00:00 -6.1 2 Norte 9 Nordeste 0 939.8 -- 79
2021-01-13 00:00:00 -5.5 0 Calma 13 Nordeste 0 940 -- 77
2021-01-12 23:00:00 -5.5 4 Nordeste 9 Nordeste 0 940 -- 78
2021-01-12 22:00:00 -3.2 9 Nordeste 13 Nordeste 0 939.6 -- 72
2021-01-12 21:00:00 -3.7 0 Calma 15 Nordeste 0 939.6 -- 68
2021-01-12 20:00:00 -4.2 0 Calma 5 Norte 0 939.2 -- 78
2021-01-12 19:00:00 -3 0 Calma 9 Nordeste 0 939.1 -- 72
2021-01-12 18:00:00 -0.6 0 Calma 9 Oeste 0 938.6 -- 56
2021-01-12 17:00:00 1.2 5 Oeste 9 Oeste 0 938.5 -- 49
2021-01-12 16:00:00 2.5 5 Sudoeste 8 Oeste 0 938 -- 44
2021-01-12 15:00:00 2.9 5 Sudoeste 9 Oeste 0 938.2 -- 45
2021-01-12 14:00:00 3.6 4 Sudoeste 6 Sudoeste 0 938.3 -- 43
2021-01-12 13:00:00 1 6 Sudoeste 9 Sudoeste -- 939.1 -- 49
2021-01-12 12:00:00 3.4 0 Calma 3 Sudoeste -- 939.5 -- 44
2021-01-12 11:00:00 0.3 0 Calma 5 Sur -- 939.4 -- 57
2021-01-12 10:00:00 -3.9 0 Calma 10 Este -- 938.5 -- 72
2021-01-12 09:00:00 -7.6 5 Nordeste 10 Nordeste -- 938.1 -- 78
2021-01-12 08:00:00 -7.1 5 Nordeste 10 Nordeste -- 937.6 -- 77
2021-01-12 07:00:00 -8.4 0 Calma 8 Nordeste -- 937.2 -- 77
2021-01-12 06:00:00 -6 6 Nordeste 13 Nordeste -- 936.5 -- 71
2021-01-12 05:00:00 -5.3 6 Nordeste 14 Nordeste -- 936.6 -- 66
2021-01-12 04:00:00 -5.9 6 Nordeste 12 Nordeste -- 937 -- 71
2021-01-12 03:00:00 -6.6 5 Nordeste 8 Nordeste -- 936.6 -- 69
2021-01-12 02:00:00 -5.9 3 Nordeste 8 Nordeste -- 936.3 -- 67
2021-01-12 01:00:00 -5.2 3 Nordeste 15 Noroeste -- 936 -- 60
2021-01-12 00:00:00 -2.5 5 Norte 32 Noroeste -- 935.6 -- 52
2021-01-11 23:00:00 -0.2 18 Noroeste 32 Noroeste -- 935.2 -- 48
2021-01-11 22:00:00 -0.6 20 Noroeste 37 Noroeste -- 934.8 -- 52
2021-01-11 21:00:00 -0.4 18 Noroeste 35 Noroeste -- 934.4 -- 53
2021-01-11 20:00:00 -2.4 3 Este 23 Noroeste -- 934.1 -- 60
2021-01-11 19:00:00 -1 0 Calma 25 Noroeste -- 933.5 -- 52
2021-01-11 18:00:00 0.6 8 Norte 32 Noroeste -- 932.9 -- 46
2021-01-11 17:00:00 1.6 10 Noroeste 21 Norte -- 932.5 -- 43
2021-01-11 16:00:00 3.5 2 Noroeste 30 Noroeste -- 931.9 -- 37
2021-01-11 15:00:00 2.9 15 Noroeste 27 Noroeste -- 931.4 -- 39
2021-01-11 14:00:00 3.9 9 Noroeste -- -- -- 931.3 -- 38
2021-01-11 13:00:00 -- -- -- -- -- -- -- -- --
2021-01-11 12:00:00 -- -- -- -- -- -- -- -- --
2021-01-11 11:00:00 -- -- -- -- -- -- -- -- --
2021-01-11 10:00:00 -2.8 0 Calma -- -- -- 931 -- 63
2021-01-11 09:00:00 -7 0 Calma -- -- -- 930.3 -- 74
2021-01-11 08:00:00 -6.7 0 Calma -- -- -- 930 -- 76
2021-01-11 07:00:00 -6.3 0 Calma -- -- -- 929.2 -- 75
2021-01-11 06:00:00 -5.7 0 Calma -- -- -- 929 -- 72
2021-01-11 05:00:00 -5.4 0 Calma -- -- -- 928.7 -- 78
2021-01-11 04:00:00 -5 0 Calma -- -- -- 928.7 -- 75
2021-01-11 03:00:00 -4 0 Calma 7 Sudeste -- 928.5 -- 69
2021-01-11 02:00:00 -2 2 Norte 32 Noroeste -- 927.8 -- 60
2021-01-11 01:00:00 -1.5 0 Calma 13 Norte -- 927.9 -- 69
2021-01-11 00:00:00 -1.1 0 Calma 8 Sudoeste -- 927.8 -- 77
2021-01-10 23:00:00 -0.1 2 Sur -- -- -- 927.6 -- 72
2021-01-10 22:00:00 0.9 13 Norte -- -- -- 927.2 -- 67
2021-01-10 21:00:00 0.3 0 Calma -- -- -- 927 -- 78
2021-01-10 20:00:00 0.7 0 Calma -- -- -- 926.4 -- 77
2021-01-10 19:00:00 0.8 3 Nordeste -- -- -- 926.2 -- 80
2021-01-10 18:00:00 0.9 0 Calma -- -- -- 925.2 -- 78
2021-01-10 17:00:00 2.2 0 Calma -- -- -- 924.5 -- 66
2021-01-10 16:00:00 3.4 0 Calma -- -- -- 923.7 -- 69
2021-01-10 15:00:00 3 0 Calma 10 Norte -- 923.3 -- 87
2021-01-10 14:00:00 2 0 Calma 5 Nordeste 3.5 923 -- 88
2021-01-10 13:00:00 0.6 0 Calma 6 Sur 1.7 923.2 -- 88
2021-01-10 12:00:00 -0.1 0 Calma -- -- 1.2 923.7 -- 88
2021-01-10 11:00:00 -0.9 0 Calma 4 Noroeste 0 923 -- 88
2021-01-10 10:00:00 -2.4 0 Calma -- -- 0 921.9 -- 87
2021-01-10 09:00:00 -3 0 Calma -- -- 0 921 -- 87
2021-01-10 08:00:00 -2.9 0 Calma -- -- 0 920.7 -- 87
2021-01-10 07:00:00 -3.9 0 Calma -- -- 0 919.7 -- 87
2021-01-10 06:00:00 -4.9 0 Calma -- -- 0 919.3 -- 87
2021-01-10 05:00:00 -3.7 0 Calma 4 Nordeste 0 919.1 -- 88
2021-01-10 04:00:00 -0.9 3 Nordeste 9 Nordeste 0 919.3 -- 89
2021-01-10 03:00:00 -0.2 4 Nordeste 12 Nordeste 0.1 919.2 -- 89
2021-01-10 02:00:00 -0.2 7 Este 11 Este 0 918.9 -- 89
2021-01-10 01:00:00 -0.2 6 Este 13 Este 0 919 -- 89
2021-01-10 00:00:00 -0.3 6 Este 12 Este 0 918.8 -- 89
2021-01-09 23:00:00 -0.5 0 Calma -- -- 0 918.3 -- 89
2021-01-09 22:00:00 -0.7 0 Calma -- -- 0 917.8 -- 89
2021-01-09 21:00:00 -0.8 0 Calma -- -- 0 917.3 -- 89
2021-01-09 20:00:00 -0.9 0 Calma -- -- 0 916.7 -- 89
2021-01-09 19:00:00 -1.2 0 Calma -- -- 0.1 916 -- 89
2021-01-09 18:00:00 -0.5 0 Calma 21 Este 0.2 915.2 -- 89
2021-01-09 17:00:00 -0.4 7 Este 14 Nordeste 0.4 914.3 -- 89
2021-01-09 16:00:00 -0.3 7 Este 16 Este 0.7 913.6 -- 89
2021-01-09 15:00:00 -0.3 8 Nordeste 19 Nordeste 0.6 913.1 -- 89
2021-01-09 14:00:00 -0.4 9 Nordeste 24 Este 0.6 913 -- 89
2021-01-09 13:00:00 -0.6 5 Nordeste 21 Nordeste 0.1 913.4 -- 89
2021-01-09 12:00:00 -1 0 Calma -- -- 0 914.2 -- 89
2021-01-09 11:00:00 -1.2 0 Calma -- -- 0 914.3 -- 89
2021-01-09 10:00:00 -1.5 0 Calma -- -- 0 913.8 -- 89
2021-01-09 09:00:00 -1.7 0 Calma -- -- 0 913.4 -- 89
2021-01-09 08:00:00 -1.8 0 Calma -- -- 0 913.2 -- 89
2021-01-09 07:00:00 -1.7 0 Calma -- -- 0 913 -- 89
2021-01-09 06:00:00 -1.5 0 Calma -- -- 0 913.3 -- 89
2021-01-09 05:00:00 -1.4 0 Calma -- -- 0 913.6 -- 88
2021-01-09 04:00:00 -1.2 0 Calma -- -- 0 914.3 -- 88
2021-01-09 03:00:00 -1 0 Calma -- -- 0.1 914.3 -- 88
2021-01-09 02:00:00 -0.6 0 Calma -- -- 0.1 914.5 -- 88
2021-01-09 01:00:00 -0.2 0 Calma 25 Nordeste 0.1 915.1 -- 88
2021-01-09 00:00:00 -0.1 12 Nordeste 24 Este 0.2 915.6 -- 88
2021-01-08 23:00:00 0 10 Nordeste 22 Nordeste 0.1 916.2 -- 88
2021-01-08 22:00:00 0 12 Nordeste 26 Nordeste 0.4 916.8 -- 88
2021-01-08 21:00:00 0.1 10 Este 18 Nordeste 0.3 917 -- 88
2021-01-08 20:00:00 0.1 6 Nordeste 24 Nordeste 0.4 916.9 -- 88
2021-01-08 19:00:00 0.2 10 Nordeste 22 Nordeste 0.4 917 -- 87
2021-01-08 18:00:00 0.3 9 Nordeste 26 Nordeste 0.4 917.1 -- 87
2021-01-08 17:00:00 0.4 11 Nordeste 26 Nordeste 1 917.7 -- 86
2021-01-08 16:00:00 0.7 9 Nordeste 21 Nordeste 0.8 917.7 -- 86
2021-01-08 15:00:00 0.6 6 Nordeste 17 Nordeste 0.6 918.3 -- 84
2021-01-08 14:00:00 0.4 6 Nordeste 17 Nordeste 0.9 918.9 -- 84
2021-01-08 13:00:00 -0.1 6 Nordeste 15 Este 0 920.3 -- 80
2021-01-08 12:00:00 1.1 5 Sudeste 10 Este 0 921.5 -- 56
2021-01-08 11:00:00 0.6 5 Este 10 Este 0 921.8 -- 58
2021-01-08 10:00:00 -1.5 0 Calma 5 Sudoeste 0 921.6 -- 72
2021-01-08 09:00:00 -1.5 0 Calma 6 Este 0 920.8 -- 62
2021-01-08 08:00:00 -0.7 4 Este 8 Este 0 921 -- 48
2021-01-08 07:00:00 -0.7 4 Este 10 Nordeste 0 921.1 -- 48
2021-01-08 06:00:00 -1.9 3 Nordeste 8 Nordeste 0 921.7 -- 56
2021-01-08 05:00:00 -4 4 Nordeste 8 Nordeste 0 922 -- 66
2021-01-08 04:00:00 -3.9 5 Nordeste 8 Nordeste 0 922.6 -- 67
2021-01-08 03:00:00 -3.2 5 Nordeste 8 Nordeste 0 922.6 -- 66
2021-01-08 02:00:00 -3.2 5 Nordeste 8 Nordeste 0 922.7 -- 71
2021-01-08 01:00:00 -2.9 5 Nordeste 9 Nordeste 0 923 -- 73
2021-01-08 00:00:00 -2.4 5 Nordeste 12 Nordeste 0 923.2 -- 72
2021-01-07 23:00:00 -2.4 2 Nordeste 11 Nordeste 0 923.4 -- 72
2021-01-07 22:00:00 -1.6 6 Nordeste 12 Nordeste 0 923.2 -- 74
2021-01-07 21:00:00 -1.3 6 Nordeste 12 Nordeste 0 923.6 -- 78
2021-01-07 20:00:00 -0.4 4 Nordeste 7 Norte 0 923.7 -- 79
2021-01-07 19:00:00 -0.3 3 Nordeste 9 Nordeste 0 923.7 -- 80
2021-01-07 18:00:00 0.1 4 Este 12 Nordeste 0 923.4 -- 78
2021-01-07 17:00:00 0.8 5 Nordeste 11 Nordeste 0.2 923.1 -- 80
2021-01-07 16:00:00 0.3 5 Nordeste 13 Nordeste 0.7 922.9 -- 84
2021-01-07 15:00:00 0 3 Nordeste 13 Este 0.1 923 -- 85
2021-01-07 14:00:00 -0.5 8 Este 21 Este 0 922.6 -- 84
2021-01-07 13:00:00 -0.6 6 Este 20 Nordeste 0 923.3 -- 81
2021-01-07 12:00:00 0.9 6 Este 15 Nordeste 0 923.5 -- 55
2021-01-07 11:00:00 1 6 Este 21 Nordeste 0 923.4 -- 56
2021-01-07 10:00:00 0.3 9 Nordeste 22 Nordeste 0 923.1 -- 57
2021-01-07 09:00:00 0.8 4 Este 12 Nordeste 0 922.3 -- 51
2021-01-07 08:00:00 0.7 4 Nordeste 11 Nordeste 0 922.3 -- 51
2021-01-07 07:00:00 0.5 3 Nordeste 13 Nordeste 0 922 -- 51
2021-01-07 06:00:00 0.2 3 Nordeste 9 Norte 0 921.9 -- 52
2021-01-07 05:00:00 0 4 Nordeste 10 Nordeste 0 921.9 -- 51
2021-01-07 04:00:00 0.7 5 Nordeste 15 Nordeste 0 922.3 -- 49
2021-01-07 03:00:00 1.1 6 Nordeste 20 Nordeste 0 922.1 -- 48
2021-01-07 02:00:00 0.5 6 Nordeste 14 Nordeste 0 922.3 -- 51
2021-01-07 01:00:00 0 4 Nordeste 16 Nordeste 0 922.6 -- 53
2021-01-07 00:00:00 0.6 8 Nordeste 16 Nordeste 0 922.7 -- 51
2021-01-06 23:00:00 0.8 6 Nordeste 18 Nordeste 0 923.1 -- 50
2021-01-06 22:00:00 0.2 6 Nordeste 13 Nordeste 0 923.6 -- 52
2021-01-06 21:00:00 0.4 6 Nordeste 9 Nordeste 0 923.8 -- 51
2021-01-06 20:00:00 0.7 5 Nordeste 9 Nordeste 0 923.8 -- 51
2021-01-06 19:00:00 0.3 5 Nordeste 8 Nordeste 0 923.7 -- 53
2021-01-06 18:00:00 1.2 0 Calma 9 Sudeste 0 923.4 -- 46
2021-01-06 17:00:00 3.9 6 Sudeste 16 Sudeste 0 923 -- 37
2021-01-06 16:00:00 4.9 8 Sudeste 15 Sudeste 0 922.8 -- 36
2021-01-06 15:00:00 5.3 8 Sudeste 17 Sur 0 923 -- 37
2021-01-06 14:00:00 5.3 6 Sudeste 15 Sudeste 0 923.5 -- 39
2021-01-06 13:00:00 4.6 8 Sudeste 14 Sur 0 924 -- 42
2021-01-06 12:00:00 3.6 6 Sudeste 13 Sudeste 0 924.9 -- 46
2021-01-06 11:00:00 1.2 0 Calma 5 Sur 0 925.2 -- 64
2021-01-06 10:00:00 -0.8 0 Calma 5 Nordeste 0 924.7 -- 73
2021-01-06 09:00:00 -5.3 3 Nordeste 5 Nordeste 0 924.3 -- 82
2021-01-06 08:00:00 -5.8 0 Calma 5 Nordeste 0 923.8 -- 82
2021-01-06 07:00:00 -5.3 2 Nordeste 5 Nordeste 0 923.1 -- 81
2021-01-06 06:00:00 -5.3 2 Norte 6 Nordeste 0 922.8 -- 81
2021-01-06 05:00:00 -4.9 3 Nordeste 5 Nordeste 0 922.9 -- 79
2021-01-06 04:00:00 -4.6 0 Calma 6 Nordeste 0 923 -- 78
2021-01-06 03:00:00 -3.9 4 Nordeste 6 Nordeste 0 923 -- 78
2021-01-06 02:00:00 -4.2 2 Nordeste 5 Nordeste 0 922.9 -- 78
2021-01-06 01:00:00 -4.2 2 Nordeste 5 Nordeste 0 922.9 -- 76
2021-01-06 00:00:00 -3.9 0 Calma 7 Nordeste 0 922.7 -- 74
2021-01-05 23:00:00 -3.8 2 Nordeste 6 Nordeste 0 922.7 -- 72
2021-01-05 22:00:00 -3.4 3 Nordeste 6 Nordeste 0 922.7 -- 72
2021-01-05 21:00:00 -3.2 0 Calma 4 Nordeste 0 922.9 -- 69
2021-01-05 20:00:00 -2.9 0 Calma 7 Nordeste 0 922.7 -- 67
2021-01-05 19:00:00 -0.4 5 Nordeste 8 Nordeste 0 922.1 -- 60
2021-01-05 18:00:00 1.5 2 Noroeste 13 Sudoeste 0 921.8 -- 51
2021-01-05 17:00:00 4 7 Sudoeste 14 Sudoeste 0 921.5 -- 43
2021-01-05 16:00:00 5.3 5 Sur 17 Sur 0 921.3 -- 40
2021-01-05 15:00:00 5.3 8 Sudeste 17 Sudoeste 0 921.4 -- 41
2021-01-05 14:00:00 5.5 5 Sur 20 Sur 0 922 -- 43
2021-01-05 13:00:00 4.5 4 Sudeste 14 Este 0 922.6 -- 45
2021-01-05 12:00:00 3.1 8 Sudeste 19 Sudeste 0 923.4 -- 48
2021-01-05 11:00:00 3 7 Sur 20 Sudeste 0 923.7 -- 46
2021-01-05 10:00:00 2 6 Norte 22 Norte 0 923.4 -- 48
2021-01-05 09:00:00 -2.6 2 Sur 12 Sur 0 923 -- 62
2021-01-05 08:00:00 -1.6 5 Este 24 Noroeste 0 922.2 -- 60
2021-01-05 07:00:00 0 0 Calma 30 Norte 0 922.1 -- 57
2021-01-05 06:00:00 -0.9 3 Sur 28 Norte 0 922 -- 59
2021-01-05 05:00:00 0.7 17 Norte 35 Norte 0 922.1 -- 57
2021-01-05 04:00:00 0.9 11 Norte 24 Norte 0 922.4 -- 56
2021-01-05 03:00:00 0.4 7 Norte 20 Norte 0 922.7 -- 58
2021-01-05 02:00:00 0.3 7 Norte 16 Norte 0 922.5 -- 60
2021-01-05 01:00:00 0.9 9 Norte 18 Norte 0 922.9 -- 60
2021-01-05 00:00:00 -0.5 5 Norte 13 Norte 0 923.2 -- 67
2021-01-04 23:00:00 -1.8 4 Sudoeste 13 Noroeste 0 923.3 -- 65
2021-01-04 22:00:00 -1.8 3 Sur 9 Sudoeste 0 922.9 -- 64
2021-01-04 21:00:00 -0.3 5 Sudoeste 24 Oeste 0 922.2 -- 57
2021-01-04 20:00:00 1.6 4 Noroeste 27 Norte 0 922 -- 48
2021-01-04 19:00:00 2.5 6 Norte 24 Norte 0 921.7 -- 45
2021-01-04 18:00:00 3 9 Norte 24 Norte 0 921.2 -- 43
2021-01-04 17:00:00 4.1 8 Norte 25 Norte 0 921 -- 41
2021-01-04 16:00:00 4.7 12 Norte 28 Noroeste 0 920.6 -- 40
2021-01-04 15:00:00 4.1 12 Noroeste 25 Noroeste 0 920.6 -- 42
2021-01-04 14:00:00 4.6 11 Noroeste 26 Noroeste 0 921.2 -- 41
2021-01-04 13:00:00 3.8 13 Noroeste 35 Oeste 0 921.8 -- 43
2021-01-04 12:00:00 4.1 10 Noroeste 27 Norte 0 922.4 -- 44
2021-01-04 11:00:00 3.1 9 Norte 28 Norte 0 923.2 -- 48
2021-01-04 10:00:00 1.5 12 Norte 27 Noroeste 0 923.1 -- 52
2021-01-04 09:00:00 1 8 Norte 24 Noroeste 0 923 -- 54
2021-01-04 08:00:00 1.2 7 Noroeste 22 Norte 0 923 -- 53
2021-01-04 07:00:00 1.4 9 Noroeste 22 Norte 0 922.9 -- 52
2021-01-04 06:00:00 1.9 12 Norte 24 Norte 0 922.8 -- 52
2021-01-04 05:00:00 2.4 6 Norte 25 Norte 0 923 -- 53
2021-01-04 04:00:00 2.5 5 Oeste 17 Nordeste 0 923.3 -- 56
2021-01-04 03:00:00 2.3 0 Calma 30 Oeste 0 923.3 -- 57
2021-01-04 02:00:00 2.6 8 Noroeste 29 Noroeste 0 923.5 -- 57
2021-01-04 01:00:00 2.9 4 Oeste 13 Noroeste 0 923.6 -- 48
2021-01-04 00:00:00 2.9 6 Noroeste 19 Oeste 0 924.4 -- 48
2021-01-03 23:00:00 1.8 5 Noroeste 14 Noroeste 0 924.7 -- 51
2021-01-03 22:00:00 2.3 6 Noroeste 24 Norte 0 924.9 -- 48
2021-01-03 21:00:00 2.6 12 Noroeste 33 Norte 0 924.6 -- 49
2021-01-03 20:00:00 2.8 6 Noroeste 22 Norte 0 924.9 -- 48
2021-01-03 19:00:00 3.2 8 Noroeste 36 Norte 0 925 -- 44
2021-01-03 18:00:00 3.4 13 Norte 36 Noroeste 0 924.9 -- 43
2021-01-03 17:00:00 5.5 9 Noroeste 24 Noroeste 0 924.5 -- 36
2021-01-03 16:00:00 6.5 10 Norte 26 Noroeste 0 924.2 -- 32
2021-01-03 15:00:00 7.1 10 Noroeste 33 Oeste 0 924.8 -- 32
2021-01-03 14:00:00 6.7 11 Noroeste 30 Noroeste 0 925.2 -- 36
2021-01-03 13:00:00 5.7 12 Noroeste 31 Norte 0 926.1 -- 38
2021-01-03 12:00:00 4.9 9 Noroeste 25 Noroeste 0 926.8 -- 41
2021-01-03 11:00:00 3 13 Noroeste 26 Norte 0 927 -- 47
2021-01-03 10:00:00 1.9 9 Noroeste 26 Oeste 0 927 -- 50
2021-01-03 09:00:00 0.9 9 Norte 32 Norte 0 926.8 -- 54
2021-01-03 08:00:00 -0.3 3 Norte 13 Nordeste 0 926.5 -- 59
2021-01-03 07:00:00 0.2 4 Nordeste 20 Este 0 926.6 -- 57
2021-01-03 06:00:00 0.6 4 Sudeste 26 Norte 0 926.5 -- 56
2021-01-03 05:00:00 0.3 9 Norte 35 Noroeste 0 926.5 -- 55
2021-01-03 04:00:00 0.5 7 Nordeste 17 Nordeste 0 926.5 -- 54
2021-01-03 03:00:00 0.1 6 Norte 18 Noroeste 0 926.6 -- 55
2021-01-03 02:00:00 -0.9 0 Calma 12 Noroeste 0 926.6 -- 57
2021-01-03 01:00:00 -0.4 4 Noroeste 12 Norte 0 927 -- 55
2021-01-03 00:00:00 0.3 6 Norte 13 Norte 0 926.8 -- 48
2021-01-02 23:00:00 0.9 3 Oeste 18 Nordeste 0 926.9 -- 45
2021-01-02 22:00:00 1.2 7 Sur 30 Norte 0 926.5 -- 43
2021-01-02 21:00:00 1.3 4 Noroeste 24 Sur 0 926.3 -- 44
2021-01-02 20:00:00 1.3 5 Norte 20 Oeste 0 926.2 -- 43
2021-01-02 19:00:00 1.4 3 Nordeste 29 Nordeste 0 926.2 -- 39
2021-01-02 18:00:00 1.9 10 Nordeste 40 Nordeste 0 925.9 -- 39
2021-01-02 17:00:00 2.2 17 Nordeste 43 Nordeste 0 925.8 -- 39
2021-01-02 16:00:00 2.5 18 Nordeste 40 Nordeste 0 925.2 -- 41
2021-01-02 15:00:00 3 20 Nordeste 48 Nordeste 0 925.1 -- 41
2021-01-02 14:00:00 3 14 Norte 50 Norte 0 924.5 -- 45